sensor_id;sensor_type;location;lat;lon;timestamp;temperature;humidity
14053;DHT22;7101;51.600;7.310;2023-10-13T00:01:10;17.10;99.90
14053;DHT22;7101;51.600;7.310;2023-10-13T00:03:39;17.10;99.90
14053;DHT22;7101;51.600;7.310;2023-10-13T00:06:06;17.10;99.90
14053;DHT22;7101;51.600;7.310;2023-10-13T00:08:34;17.00;99.90
14053;DHT22;7101;51.600;7.310;2023-10-13T00:11:05;17.00;99.90
14053;DHT22;7101;51.600;7.310;2023-10-13T00:13:35;17.00;99.90
14053;DHT22;7101;51.600;7.310;2023-10-13T00:16:09;17.10;99.90
14053;DHT22;7101;51.600;7.310;2023-10-13T00:18:45;17.10;99.90
14053;DHT22;7101;51.600;7.310;2023-10-13T00:21:14;17.10;99.90
14053;DHT22;7101;51.600;7.310;2023-10-13T00:23:46;17.10;99.90
14053;DHT22;7101;51.600;7.310;2023-10-13T00:26:25;17.10;99.90
14053;DHT22;7101;51.600;7.310;2023-10-13T00:28:53;17.10;99.90
14053;DHT22;7101;51.600;7.310;2023-10-13T00:31:36;17.10;99.90
14053;DHT22;7101;51.600;7.310;2023-10-13T00:34:06;17.20;99.90
14053;DHT22;7101;51.600;7.310;2023-10-13T00:36:37;17.10;99.90
14053;DHT22;7101;51.600;7.310;2023-10-13T00:39:13;17.10;99.90
14053;DHT22;7101;51.600;7.310;2023-10-13T00:41:42;17.10;99.90
14053;DHT22;7101;51.600;7.310;2023-10-13T00:44:22;17.10;99.90
14053;DHT22;7101;51.600;7.310;2023-10-13T00:46:55;17.10;99.90
14053;DHT22;7101;51.600;7.310;2023-10-13T00:49:23;17.10;99.90
14053;DHT22;7101;51.600;7.310;2023-10-13T00:51:51;17.10;99.90
14053;DHT22;7101;51.600;7.310;2023-10-13T00:54:18;17.10;99.90
14053;DHT22;7101;51.600;7.310;2023-10-13T00:56:52;17.20;99.90
14053;DHT22;7101;51.600;7.310;2023-10-13T00:59:29;17.20;99.90
14053;DHT22;7101;51.600;7.310;2023-10-13T01:02:00;17.20;99.90
14053;DHT22;7101;51.600;7.310;2023-10-13T01:04:46;17.20;99.90
14053;DHT22;7101;51.600;7.310;2023-10-13T01:07:14;17.20;99.90
14053;DHT22;7101;51.600;7.310;2023-10-13T01:09:42;17.20;99.90
14053;DHT22;7101;51.600;7.310;2023-10-13T01:12:09;17.20;99.90
14053;DHT22;7101;51.600;7.310;2023-10-13T01:14:35;17.10;99.90
14053;DHT22;7101;51.600;7.310;2023-10-13T01:17:06;17.10;99.90
14053;DHT22;7101;51.600;7.310;2023-10-13T01:19:36;17.10;99.90
14053;DHT22;7101;51.600;7.310;2023-10-13T01:22:04;17.20;99.90
14053;DHT22;7101;51.600;7.310;2023-10-13T01:24:33;17.20;99.90
14053;DHT22;7101;51.600;7.310;2023-10-13T01:27:00;17.20;99.90
14053;DHT22;7101;51.600;7.310;2023-10-13T01:29:42;17.20;99.90
14053;DHT22;7101;51.600;7.310;2023-10-13T01:32:13;17.20;99.90
14053;DHT22;7101;51.600;7.310;2023-10-13T01:34:41;17.30;99.90
14053;DHT22;7101;51.600;7.310;2023-10-13T01:37:11;17.20;99.90
14053;DHT22;7101;51.600;7.310;2023-10-13T01:39:39;17.20;99.90
14053;DHT22;7101;51.600;7.310;2023-10-13T01:42:05;17.20;99.90
14053;DHT22;7101;51.600;7.310;2023-10-13T01:44:32;17.20;99.90
14053;DHT22;7101;51.600;7.310;2023-10-13T01:46:59;17.20;99.90
14053;DHT22;7101;51.600;7.310;2023-10-13T01:49:31;17.30;99.90
14053;DHT22;7101;51.600;7.310;2023-10-13T01:52:07;17.30;99.90
14053;DHT22;7101;51.600;7.310;2023-10-13T01:54:36;17.40;99.90
14053;DHT22;7101;51.600;7.310;2023-10-13T01:57:07;17.50;99.90
14053;DHT22;7101;51.600;7.310;2023-10-13T01:59:39;17.40;99.90
14053;DHT22;7101;51.600;7.310;2023-10-13T02:02:09;17.40;99.90
14053;DHT22;7101;51.600;7.310;2023-10-13T02:04:38;17.40;99.90
14053;DHT22;7101;51.600;7.310;2023-10-13T02:07:08;17.40;99.90
14053;DHT22;7101;51.600;7.310;2023-10-13T02:09:40;17.40;99.90
14053;DHT22;7101;51.600;7.310;2023-10-13T02:12:10;17.40;99.90
14053;DHT22;7101;51.600;7.310;2023-10-13T02:14:37;17.50;99.90
14053;DHT22;7101;51.600;7.310;2023-10-13T02:17:04;17.40;99.90
14053;DHT22;7101;51.600;7.310;2023-10-13T02:19:38;17.40;99.90
14053;DHT22;7101;51.600;7.310;2023-10-13T02:22:09;17.40;99.90
14053;DHT22;7101;51.600;7.310;2023-10-13T02:24:36;17.50;99.90
14053;DHT22;7101;51.600;7.310;2023-10-13T02:27:05;17.50;99.90
14053;DHT22;7101;51.600;7.310;2023-10-13T02:29:40;17.50;99.90
14053;DHT22;7101;51.600;7.310;2023-10-13T02:32:07;17.50;99.90
14053;DHT22;7101;51.600;7.310;2023-10-13T02:34:44;17.50;99.90
14053;DHT22;7101;51.600;7.310;2023-10-13T02:37:12;17.50;99.90
14053;DHT22;7101;51.600;7.310;2023-10-13T02:39:39;17.40;99.90
14053;DHT22;7101;51.600;7.310;2023-10-13T02:42:07;17.50;99.90
14053;DHT22;7101;51.600;7.310;2023-10-13T02:44:32;17.50;99.90
14053;DHT22;7101;51.600;7.310;2023-10-13T02:47:03;17.50;99.90
14053;DHT22;7101;51.600;7.310;2023-10-13T02:49:32;17.50;99.90
14053;DHT22;7101;51.600;7.310;2023-10-13T02:52:03;17.50;99.90
14053;DHT22;7101;51.600;7.310;2023-10-13T02:54:33;17.50;99.90
14053;DHT22;7101;51.600;7.310;2023-10-13T02:57:05;17.50;99.90
14053;DHT22;7101;51.600;7.310;2023-10-13T02:59:32;17.50;99.90
14053;DHT22;7101;51.600;7.310;2023-10-13T03:02:07;17.50;99.90
14053;DHT22;7101;51.600;7.310;2023-10-13T03:04:43;17.50;99.90
14053;DHT22;7101;51.600;7.310;2023-10-13T03:07:10;17.60;99.90
14053;DHT22;7101;51.600;7.310;2023-10-13T03:09:41;17.60;99.90
14053;DHT22;7101;51.600;7.310;2023-10-13T03:12:16;17.60;99.90
14053;DHT22;7101;51.600;7.310;2023-10-13T03:14:43;17.60;99.90
14053;DHT22;7101;51.600;7.310;2023-10-13T03:17:15;17.60;99.90
14053;DHT22;7101;51.600;7.310;2023-10-13T03:19:43;17.60;99.90
14053;DHT22;7101;51.600;7.310;2023-10-13T03:22:16;17.60;99.90
14053;DHT22;7101;51.600;7.310;2023-10-13T03:24:44;17.60;99.90
14053;DHT22;7101;51.600;7.310;2023-10-13T03:27:12;17.50;99.90
14053;DHT22;7101;51.600;7.310;2023-10-13T03:29:43;17.50;99.90
14053;DHT22;7101;51.600;7.310;2023-10-13T03:32:11;17.60;99.90
14053;DHT22;7101;51.600;7.310;2023-10-13T03:34:40;17.50;99.90
14053;DHT22;7101;51.600;7.310;2023-10-13T03:37:16;17.60;99.90
14053;DHT22;7101;51.600;7.310;2023-10-13T03:39:45;17.60;99.90
14053;DHT22;7101;51.600;7.310;2023-10-13T03:42:12;17.50;99.90
14053;DHT22;7101;51.600;7.310;2023-10-13T03:44:44;17.50;99.90
14053;DHT22;7101;51.600;7.310;2023-10-13T03:47:12;17.50;99.90
14053;DHT22;7101;51.600;7.310;2023-10-13T03:49:53;17.40;99.90
14053;DHT22;7101;51.600;7.310;2023-10-13T03:52:40;17.40;99.90
14053;DHT22;7101;51.600;7.310;2023-10-13T03:55:07;17.40;99.90
14053;DHT22;7101;51.600;7.310;2023-10-13T03:57:43;17.40;99.90
14053;DHT22;7101;51.600;7.310;2023-10-13T04:00:12;17.30;99.90
14053;DHT22;7101;51.600;7.310;2023-10-13T04:02:47;17.30;99.90
14053;DHT22;7101;51.600;7.310;2023-10-13T04:05:21;17.40;99.90
14053;DHT22;7101;51.600;7.310;2023-10-13T04:08:02;17.40;99.90
14053;DHT22;7101;51.600;7.310;2023-10-13T04:10:49;17.30;99.90
14053;DHT22;7101;51.600;7.310;2023-10-13T04:13:34;17.20;99.90
14053;DHT22;7101;51.600;7.310;2023-10-13T04:16:18;17.20;99.90
14053;DHT22;7101;51.600;7.310;2023-10-13T04:18:59;17.20;99.90
14053;DHT22;7101;51.600;7.310;2023-10-13T04:21:35;17.20;99.90
14053;DHT22;7101;51.600;7.310;2023-10-13T04:24:20;17.20;99.90
14053;DHT22;7101;51.600;7.310;2023-10-13T04:27:05;17.20;99.90
14053;DHT22;7101;51.600;7.310;2023-10-13T04:29:49;17.20;99.90
14053;DHT22;7101;51.600;7.310;2023-10-13T04:32:27;17.20;99.90
14053;DHT22;7101;51.600;7.310;2023-10-13T04:35:04;17.20;99.90
14053;DHT22;7101;51.600;7.310;2023-10-13T04:37:44;17.20;99.90
14053;DHT22;7101;51.600;7.310;2023-10-13T04:40:26;17.10;99.90
14053;DHT22;7101;51.600;7.310;2023-10-13T04:43:03;17.10;99.90
14053;DHT22;7101;51.600;7.310;2023-10-13T04:45:50;17.10;99.90
14053;DHT22;7101;51.600;7.310;2023-10-13T04:48:20;17.10;99.90
14053;DHT22;7101;51.600;7.310;2023-10-13T04:51:00;17.10;99.90
14053;DHT22;7101;51.600;7.310;2023-10-13T04:53:42;17.10;99.90
14053;DHT22;7101;51.600;7.310;2023-10-13T04:56:23;17.10;99.90
14053;DHT22;7101;51.600;7.310;2023-10-13T04:59:03;17.10;99.90
14053;DHT22;7101;51.600;7.310;2023-10-13T05:02:00;17.10;99.90
14053;DHT22;7101;51.600;7.310;2023-10-13T05:04:41;17.10;99.90
14053;DHT22;7101;51.600;7.310;2023-10-13T05:07:25;17.10;99.90
14053;DHT22;7101;51.600;7.310;2023-10-13T05:10:11;17.10;99.90
14053;DHT22;7101;51.600;7.310;2023-10-13T05:12:58;17.10;99.90
14053;DHT22;7101;51.600;7.310;2023-10-13T05:15:43;17.10;99.90
14053;DHT22;7101;51.600;7.310;2023-10-13T05:18:28;17.10;99.90
14053;DHT22;7101;51.600;7.310;2023-10-13T05:21:12;17.20;99.90
14053;DHT22;7101;51.600;7.310;2023-10-13T05:23:56;17.20;99.90
14053;DHT22;7101;51.600;7.310;2023-10-13T05:26:42;17.20;99.90
14053;DHT22;7101;51.600;7.310;2023-10-13T05:29:27;17.20;99.90
14053;DHT22;7101;51.600;7.310;2023-10-13T05:32:11;17.20;99.90
14053;DHT22;7101;51.600;7.310;2023-10-13T05:34:56;17.20;99.90
14053;DHT22;7101;51.600;7.310;2023-10-13T05:37:40;17.20;99.90
14053;DHT22;7101;51.600;7.310;2023-10-13T05:40:24;17.20;99.90
14053;DHT22;7101;51.600;7.310;2023-10-13T05:43:10;17.30;99.90
14053;DHT22;7101;51.600;7.310;2023-10-13T05:46:00;17.30;99.90
14053;DHT22;7101;51.600;7.310;2023-10-13T05:48:44;17.30;99.90
14053;DHT22;7101;51.600;7.310;2023-10-13T05:51:34;17.30;99.90
14053;DHT22;7101;51.600;7.310;2023-10-13T05:54:13;17.30;99.90
14053;DHT22;7101;51.600;7.310;2023-10-13T05:56:58;17.30;99.90
14053;DHT22;7101;51.600;7.310;2023-10-13T05:59:44;17.30;99.90
14053;DHT22;7101;51.600;7.310;2023-10-13T06:02:29;17.30;99.90
14053;DHT22;7101;51.600;7.310;2023-10-13T06:05:13;17.30;99.90
14053;DHT22;7101;51.600;7.310;2023-10-13T06:07:58;17.40;99.90
14053;DHT22;7101;51.600;7.310;2023-10-13T06:10:43;17.40;99.90
14053;DHT22;7101;51.600;7.310;2023-10-13T06:13:28;17.40;99.90
14053;DHT22;7101;51.600;7.310;2023-10-13T06:16:15;17.40;99.90
14053;DHT22;7101;51.600;7.310;2023-10-13T06:19:00;17.40;99.90
14053;DHT22;7101;51.600;7.310;2023-10-13T06:21:45;17.50;99.90
14053;DHT22;7101;51.600;7.310;2023-10-13T06:24:32;17.50;99.90
14053;DHT22;7101;51.600;7.310;2023-10-13T06:27:16;17.50;99.90
14053;DHT22;7101;51.600;7.310;2023-10-13T06:30:02;17.50;99.90
14053;DHT22;7101;51.600;7.310;2023-10-13T06:32:31;17.50;99.90
14053;DHT22;7101;51.600;7.310;2023-10-13T06:34:59;17.50;99.90
14053;DHT22;7101;51.600;7.310;2023-10-13T06:37:31;17.50;99.90
14053;DHT22;7101;51.600;7.310;2023-10-13T06:40:00;17.50;99.90
14053;DHT22;7101;51.600;7.310;2023-10-13T06:42:32;17.50;99.90
14053;DHT22;7101;51.600;7.310;2023-10-13T06:45:00;17.50;99.90
14053;DHT22;7101;51.600;7.310;2023-10-13T06:47:35;17.60;99.90
14053;DHT22;7101;51.600;7.310;2023-10-13T06:50:06;17.60;99.90
14053;DHT22;7101;51.600;7.310;2023-10-13T06:52:41;17.60;99.90
14053;DHT22;7101;51.600;7.310;2023-10-13T06:55:08;17.60;99.90
14053;DHT22;7101;51.600;7.310;2023-10-13T06:57:36;17.60;99.90
14053;DHT22;7101;51.600;7.310;2023-10-13T07:00:09;17.60;99.90
14053;DHT22;7101;51.600;7.310;2023-10-13T07:02:46;17.60;99.90
14053;DHT22;7101;51.600;7.310;2023-10-13T07:05:13;17.60;99.90
14053;DHT22;7101;51.600;7.310;2023-10-13T07:07:40;17.70;99.90
14053;DHT22;7101;51.600;7.310;2023-10-13T07:10:08;17.70;99.90
14053;DHT22;7101;51.600;7.310;2023-10-13T07:12:37;17.80;99.90
14053;DHT22;7101;51.600;7.310;2023-10-13T07:15:09;17.80;99.90
14053;DHT22;7101;51.600;7.310;2023-10-13T07:17:46;17.90;99.90
14053;DHT22;7101;51.600;7.310;2023-10-13T07:20:20;18.00;99.90
14053;DHT22;7101;51.600;7.310;2023-10-13T07:22:58;18.10;99.90
14053;DHT22;7101;51.600;7.310;2023-10-13T07:25:29;18.20;99.90
14053;DHT22;7101;51.600;7.310;2023-10-13T07:27:58;18.30;99.90
14053;DHT22;7101;51.600;7.310;2023-10-13T07:30:26;18.30;99.90
14053;DHT22;7101;51.600;7.310;2023-10-13T07:33:16;18.40;99.90
14053;DHT22;7101;51.600;7.310;2023-10-13T07:35:45;18.50;99.90
14053;DHT22;7101;51.600;7.310;2023-10-13T07:38:16;18.80;99.90
14053;DHT22;7101;51.600;7.310;2023-10-13T07:40:43;18.80;99.90
14053;DHT22;7101;51.600;7.310;2023-10-13T07:43:16;18.90;99.90
14053;DHT22;7101;51.600;7.310;2023-10-13T07:45:47;18.90;99.90
14053;DHT22;7101;51.600;7.310;2023-10-13T07:48:21;19.00;99.90
14053;DHT22;7101;51.600;7.310;2023-10-13T07:51:01;19.00;99.90
14053;DHT22;7101;51.600;7.310;2023-10-13T07:53:29;19.00;99.90
14053;DHT22;7101;51.600;7.310;2023-10-13T07:56:00;19.10;99.90
14053;DHT22;7101;51.600;7.310;2023-10-13T07:58:30;19.20;99.90
14053;DHT22;7101;51.600;7.310;2023-10-13T08:00:58;19.40;99.90
14053;DHT22;7101;51.600;7.310;2023-10-13T08:03:34;19.60;99.90
14053;DHT22;7101;51.600;7.310;2023-10-13T08:06:09;19.70;99.90
14053;DHT22;7101;51.600;7.310;2023-10-13T08:08:45;19.90;99.90
14053;DHT22;7101;51.600;7.310;2023-10-13T08:11:17;19.80;99.90
14053;DHT22;7101;51.600;7.310;2023-10-13T08:13:53;19.90;99.90
14053;DHT22;7101;51.600;7.310;2023-10-13T08:16:24;19.90;99.90
14053;DHT22;7101;51.600;7.310;2023-10-13T08:19:05;20.10;99.90
14053;DHT22;7101;51.600;7.310;2023-10-13T08:21:34;20.20;99.90
14053;DHT22;7101;51.600;7.310;2023-10-13T08:24:00;20.40;99.90
14053;DHT22;7101;51.600;7.310;2023-10-13T08:26:32;20.80;99.90
14053;DHT22;7101;51.600;7.310;2023-10-13T08:29:13;21.10;99.90
14053;DHT22;7101;51.600;7.310;2023-10-13T08:32:11;21.20;99.90
14053;DHT22;7101;51.600;7.310;2023-10-13T08:34:50;21.30;99.90
14053;DHT22;7101;51.600;7.310;2023-10-13T08:37:34;21.30;99.90
14053;DHT22;7101;51.600;7.310;2023-10-13T08:40:12;21.20;99.90
14053;DHT22;7101;51.600;7.310;2023-10-13T08:43:11;21.30;99.90
14053;DHT22;7101;51.600;7.310;2023-10-13T08:45:39;21.40;99.90
14053;DHT22;7101;51.600;7.310;2023-10-13T08:48:24;21.60;99.90
14053;DHT22;7101;51.600;7.310;2023-10-13T08:50:59;21.80;99.90
14053;DHT22;7101;51.600;7.310;2023-10-13T08:53:37;22.00;99.90
14053;DHT22;7101;51.600;7.310;2023-10-13T08:56:18;22.20;1.00
14053;DHT22;7101;51.600;7.310;2023-10-13T08:58:57;22.50;1.00
14053;DHT22;7101;51.600;7.310;2023-10-13T09:01:33;22.70;1.00
14053;DHT22;7101;51.600;7.310;2023-10-13T09:04:00;22.50;1.00
14053;DHT22;7101;51.600;7.310;2023-10-13T09:06:44;22.50;1.00
14053;DHT22;7101;51.600;7.310;2023-10-13T09:09:13;22.60;1.00
14053;DHT22;7101;51.600;7.310;2023-10-13T09:11:53;22.80;1.00
14053;DHT22;7101;51.600;7.310;2023-10-13T09:14:34;22.60;1.00
14053;DHT22;7101;51.600;7.310;2023-10-13T09:17:03;22.60;1.00
14053;DHT22;7101;51.600;7.310;2023-10-13T09:19:59;22.60;99.90
14053;DHT22;7101;51.600;7.310;2023-10-13T09:22:46;22.60;99.90
14053;DHT22;7101;51.600;7.310;2023-10-13T09:25:22;22.60;99.90
14053;DHT22;7101;51.600;7.310;2023-10-13T09:27:49;22.60;99.90
14053;DHT22;7101;51.600;7.310;2023-10-13T09:30:19;22.60;99.90
14053;DHT22;7101;51.600;7.310;2023-10-13T09:32:47;22.50;99.90
14053;DHT22;7101;51.600;7.310;2023-10-13T09:35:17;22.40;99.90
14053;DHT22;7101;51.600;7.310;2023-10-13T09:37:46;22.50;99.90
14053;DHT22;7101;51.600;7.310;2023-10-13T09:40:15;22.60;99.90
14053;DHT22;7101;51.600;7.310;2023-10-13T09:42:59;22.70;99.90
14053;DHT22;7101;51.600;7.310;2023-10-13T09:45:31;22.70;99.90
14053;DHT22;7101;51.600;7.310;2023-10-13T09:48:02;22.60;99.90
14053;DHT22;7101;51.600;7.310;2023-10-13T09:50:37;22.70;99.90
14053;DHT22;7101;51.600;7.310;2023-10-13T09:53:05;22.80;99.90
14053;DHT22;7101;51.600;7.310;2023-10-13T09:55:38;22.90;99.90
14053;DHT22;7101;51.600;7.310;2023-10-13T09:58:12;22.80;99.90
14053;DHT22;7101;51.600;7.310;2023-10-13T10:00:46;22.80;99.90
14053;DHT22;7101;51.600;7.310;2023-10-13T10:03:21;22.90;99.90
14053;DHT22;7101;51.600;7.310;2023-10-13T10:06:06;22.80;99.90
14053;DHT22;7101;51.600;7.310;2023-10-13T10:08:42;22.80;99.90
14053;DHT22;7101;51.600;7.310;2023-10-13T10:11:30;22.90;99.90
14053;DHT22;7101;51.600;7.310;2023-10-13T10:14:08;23.00;99.90
14053;DHT22;7101;51.600;7.310;2023-10-13T10:16:43;23.20;99.90
14053;DHT22;7101;51.600;7.310;2023-10-13T10:19:14;23.40;99.90
14053;DHT22;7101;51.600;7.310;2023-10-13T10:21:41;23.50;99.90
14053;DHT22;7101;51.600;7.310;2023-10-13T10:24:21;23.40;99.90
14053;DHT22;7101;51.600;7.310;2023-10-13T10:26:55;23.40;99.90
14053;DHT22;7101;51.600;7.310;2023-10-13T10:29:22;23.40;99.90
14053;DHT22;7101;51.600;7.310;2023-10-13T10:31:49;23.40;99.90
14053;DHT22;7101;51.600;7.310;2023-10-13T10:34:17;23.50;99.90
14053;DHT22;7101;51.600;7.310;2023-10-13T10:36:53;23.50;99.90
14053;DHT22;7101;51.600;7.310;2023-10-13T10:39:33;23.40;99.90
14053;DHT22;7101;51.600;7.310;2023-10-13T10:42:09;23.10;99.90
14053;DHT22;7101;51.600;7.310;2023-10-13T10:44:41;23.20;99.90
14053;DHT22;7101;51.600;7.310;2023-10-13T10:47:10;23.40;99.90
14053;DHT22;7101;51.600;7.310;2023-10-13T10:49:45;23.50;99.90
14053;DHT22;7101;51.600;7.310;2023-10-13T10:52:17;23.50;99.90
14053;DHT22;7101;51.600;7.310;2023-10-13T10:54:57;23.50;99.90
14053;DHT22;7101;51.600;7.310;2023-10-13T10:57:24;23.30;99.90
14053;DHT22;7101;51.600;7.310;2023-10-13T10:59:55;23.40;99.90
14053;DHT22;7101;51.600;7.310;2023-10-13T11:02:39;23.40;99.90
14053;DHT22;7101;51.600;7.310;2023-10-13T11:05:09;23.60;99.90
14053;DHT22;7101;51.600;7.310;2023-10-13T11:07:36;23.80;99.90
14053;DHT22;7101;51.600;7.310;2023-10-13T11:10:12;23.80;99.90
14053;DHT22;7101;51.600;7.310;2023-10-13T11:12:54;23.80;99.90
14053;DHT22;7101;51.600;7.310;2023-10-13T11:15:21;24.00;99.90
14053;DHT22;7101;51.600;7.310;2023-10-13T11:17:49;24.00;99.90
14053;DHT22;7101;51.600;7.310;2023-10-13T11:20:21;23.80;99.90
14053;DHT22;7101;51.600;7.310;2023-10-13T11:22:59;23.60;99.90
14053;DHT22;7101;51.600;7.310;2023-10-13T11:25:31;23.60;99.90
14053;DHT22;7101;51.600;7.310;2023-10-13T11:28:11;23.60;99.90
14053;DHT22;7101;51.600;7.310;2023-10-13T11:30:43;23.70;99.90
14053;DHT22;7101;51.600;7.310;2023-10-13T11:33:15;23.60;99.90
14053;DHT22;7101;51.600;7.310;2023-10-13T11:35:45;23.60;99.90
14053;DHT22;7101;51.600;7.310;2023-10-13T11:43:38;23.90;99.90
14053;DHT22;7101;51.600;7.310;2023-10-13T11:46:19;24.10;99.90
14053;DHT22;7101;51.600;7.310;2023-10-13T11:54:18;24.10;99.90
14053;DHT22;7101;51.600;7.310;2023-10-13T11:56:49;24.00;99.90
14053;DHT22;7101;51.600;7.310;2023-10-13T11:59:25;24.00;99.90
14053;DHT22;7101;51.600;7.310;2023-10-13T12:01:53;24.00;99.90
14053;DHT22;7101;51.600;7.310;2023-10-13T12:04:49;24.00;99.90
14053;DHT22;7101;51.600;7.310;2023-10-13T12:07:17;24.00;99.90
14053;DHT22;7101;51.600;7.310;2023-10-13T12:09:50;23.90;99.90
14053;DHT22;7101;51.600;7.310;2023-10-13T12:12:32;23.90;99.90
14053;DHT22;7101;51.600;7.310;2023-10-13T12:15:12;23.90;99.90
14053;DHT22;7101;51.600;7.310;2023-10-13T12:18:05;23.90;99.90
14053;DHT22;7101;51.600;7.310;2023-10-13T12:20:48;24.10;99.90
14053;DHT22;7101;51.600;7.310;2023-10-13T12:23:17;24.00;99.90
14053;DHT22;7101;51.600;7.310;2023-10-13T12:25:57;24.00;99.90
14053;DHT22;7101;51.600;7.310;2023-10-13T12:28:31;24.00;99.90
14053;DHT22;7101;51.600;7.310;2023-10-13T12:31:07;24.10;99.90
14053;DHT22;7101;51.600;7.310;2023-10-13T12:33:37;24.10;99.90
14053;DHT22;7101;51.600;7.310;2023-10-13T12:36:06;24.10;99.90
14053;DHT22;7101;51.600;7.310;2023-10-13T12:38:35;24.20;99.90
14053;DHT22;7101;51.600;7.310;2023-10-13T12:41:20;24.30;99.90
14053;DHT22;7101;51.600;7.310;2023-10-13T12:44:06;24.20;99.90
14053;DHT22;7101;51.600;7.310;2023-10-13T12:46:54;24.20;99.90
14053;DHT22;7101;51.600;7.310;2023-10-13T12:49:40;24.20;99.90
14053;DHT22;7101;51.600;7.310;2023-10-13T12:52:19;24.30;99.90
14053;DHT22;7101;51.600;7.310;2023-10-13T12:54:47;24.40;99.90
14053;DHT22;7101;51.600;7.310;2023-10-13T12:57:24;24.40;99.90
14053;DHT22;7101;51.600;7.310;2023-10-13T12:59:53;24.40;99.90
14053;DHT22;7101;51.600;7.310;2023-10-13T13:02:24;24.40;99.90
14053;DHT22;7101;51.600;7.310;2023-10-13T13:04:52;24.20;99.90
14053;DHT22;7101;51.600;7.310;2023-10-13T13:07:26;24.20;99.90
14053;DHT22;7101;51.600;7.310;2023-10-13T13:09:55;24.00;99.90
14053;DHT22;7101;51.600;7.310;2023-10-13T13:12:25;23.90;99.90
14053;DHT22;7101;51.600;7.310;2023-10-13T13:14:54;23.90;99.90
14053;DHT22;7101;51.600;7.310;2023-10-13T13:17:23;23.80;99.90
14053;DHT22;7101;51.600;7.310;2023-10-13T13:19:50;23.90;99.90
14053;DHT22;7101;51.600;7.310;2023-10-13T13:22:17;24.00;99.90
14053;DHT22;7101;51.600;7.310;2023-10-13T13:24:44;24.00;99.90
14053;DHT22;7101;51.600;7.310;2023-10-13T13:27:13;23.90;99.90
14053;DHT22;7101;51.600;7.310;2023-10-13T13:29:40;24.10;99.90
14053;DHT22;7101;51.600;7.310;2023-10-13T13:32:07;24.00;99.90
14053;DHT22;7101;51.600;7.310;2023-10-13T13:34:44;24.00;99.90
14053;DHT22;7101;51.600;7.310;2023-10-13T13:37:20;23.90;99.90
14053;DHT22;7101;51.600;7.310;2023-10-13T13:39:47;23.90;99.90
14053;DHT22;7101;51.600;7.310;2023-10-13T13:42:18;23.80;99.90
14053;DHT22;7101;51.600;7.310;2023-10-13T13:44:45;23.90;99.90
14053;DHT22;7101;51.600;7.310;2023-10-13T13:47:13;23.90;99.90
14053;DHT22;7101;51.600;7.310;2023-10-13T13:49:40;23.80;99.90
14053;DHT22;7101;51.600;7.310;2023-10-13T13:52:13;23.70;99.90
14053;DHT22;7101;51.600;7.310;2023-10-13T13:54:43;23.60;99.90
14053;DHT22;7101;51.600;7.310;2023-10-13T13:57:10;23.70;99.90
14053;DHT22;7101;51.600;7.310;2023-10-13T13:59:39;23.80;99.90
14053;DHT22;7101;51.600;7.310;2023-10-13T14:02:10;23.70;99.90
14053;DHT22;7101;51.600;7.310;2023-10-13T14:04:46;23.60;99.90
14053;DHT22;7101;51.600;7.310;2023-10-13T14:07:19;23.60;99.90
14053;DHT22;7101;51.600;7.310;2023-10-13T14:09:49;23.60;99.90
14053;DHT22;7101;51.600;7.310;2023-10-13T14:12:19;23.60;99.90
14053;DHT22;7101;51.600;7.310;2023-10-13T14:15:08;23.60;99.90
14053;DHT22;7101;51.600;7.310;2023-10-13T14:17:45;23.80;99.90
14053;DHT22;7101;51.600;7.310;2023-10-13T14:20:14;23.80;99.90
14053;DHT22;7101;51.600;7.310;2023-10-13T14:22:47;23.60;99.90
14053;DHT22;7101;51.600;7.310;2023-10-13T14:25:15;23.50;99.90
14053;DHT22;7101;51.600;7.310;2023-10-13T14:27:42;23.40;99.90
14053;DHT22;7101;51.600;7.310;2023-10-13T14:30:11;23.20;99.90
14053;DHT22;7101;51.600;7.310;2023-10-13T14:32:44;23.20;99.90
14053;DHT22;7101;51.600;7.310;2023-10-13T14:35:12;23.10;99.90
14053;DHT22;7101;51.600;7.310;2023-10-13T14:37:41;23.10;99.90
14053;DHT22;7101;51.600;7.310;2023-10-13T14:40:10;23.20;99.90
14053;DHT22;7101;51.600;7.310;2023-10-13T14:42:40;23.30;99.90
14053;DHT22;7101;51.600;7.310;2023-10-13T14:45:07;23.40;99.90
14053;DHT22;7101;51.600;7.310;2023-10-13T14:47:38;23.30;99.90
14053;DHT22;7101;51.600;7.310;2023-10-13T14:50:11;23.40;99.90
14053;DHT22;7101;51.600;7.310;2023-10-13T14:52:46;23.30;99.90
14053;DHT22;7101;51.600;7.310;2023-10-13T14:55:15;23.40;99.90
14053;DHT22;7101;51.600;7.310;2023-10-13T14:58:03;23.20;99.90
14053;DHT22;7101;51.600;7.310;2023-10-13T15:00:33;23.20;99.90
14053;DHT22;7101;51.600;7.310;2023-10-13T15:03:01;23.10;99.90
14053;DHT22;7101;51.600;7.310;2023-10-13T15:05:30;23.00;99.90
14053;DHT22;7101;51.600;7.310;2023-10-13T15:08:01;23.00;99.90
14053;DHT22;7101;51.600;7.310;2023-10-13T15:10:30;22.90;99.90
14053;DHT22;7101;51.600;7.310;2023-10-13T15:12:58;22.80;99.90
14053;DHT22;7101;51.600;7.310;2023-10-13T15:15:28;22.80;99.90
14053;DHT22;7101;51.600;7.310;2023-10-13T15:17:57;22.80;99.90
14053;DHT22;7101;51.600;7.310;2023-10-13T15:20:24;22.60;99.90
14053;DHT22;7101;51.600;7.310;2023-10-13T15:22:52;22.60;99.90
14053;DHT22;7101;51.600;7.310;2023-10-13T15:25:25;22.60;99.90
14053;DHT22;7101;51.600;7.310;2023-10-13T15:28:02;22.60;99.90
14053;DHT22;7101;51.600;7.310;2023-10-13T15:30:30;22.60;99.90
14053;DHT22;7101;51.600;7.310;2023-10-13T15:33:10;22.50;99.90
14053;DHT22;7101;51.600;7.310;2023-10-13T15:35:38;22.50;99.90
14053;DHT22;7101;51.600;7.310;2023-10-13T15:38:09;22.40;99.90
14053;DHT22;7101;51.600;7.310;2023-10-13T15:40:40;22.40;99.90
14053;DHT22;7101;51.600;7.310;2023-10-13T15:43:10;22.40;99.90
14053;DHT22;7101;51.600;7.310;2023-10-13T15:45:37;22.40;99.90
14053;DHT22;7101;51.600;7.310;2023-10-13T15:48:08;22.30;99.90
14053;DHT22;7101;51.600;7.310;2023-10-13T15:50:37;22.40;99.90
14053;DHT22;7101;51.600;7.310;2023-10-13T15:53:06;22.30;99.90
14053;DHT22;7101;51.600;7.310;2023-10-13T15:55:35;22.30;99.90
14053;DHT22;7101;51.600;7.310;2023-10-13T15:58:03;22.30;99.90
14053;DHT22;7101;51.600;7.310;2023-10-13T16:00:35;22.30;99.90
14053;DHT22;7101;51.600;7.310;2023-10-13T16:03:03;22.30;99.90
14053;DHT22;7101;51.600;7.310;2023-10-13T16:05:36;22.20;99.90
14053;DHT22;7101;51.600;7.310;2023-10-13T16:08:06;22.10;99.90
14053;DHT22;7101;51.600;7.310;2023-10-13T16:10:49;22.10;99.90
14053;DHT22;7101;51.600;7.310;2023-10-13T16:13:23;22.10;99.90
14053;DHT22;7101;51.600;7.310;2023-10-13T16:15:52;22.00;99.90
14053;DHT22;7101;51.600;7.310;2023-10-13T16:18:20;22.00;99.90
14053;DHT22;7101;51.600;7.310;2023-10-13T16:20:47;22.00;99.90
14053;DHT22;7101;51.600;7.310;2023-10-13T16:23:16;22.00;99.90
14053;DHT22;7101;51.600;7.310;2023-10-13T16:25:43;22.00;99.90
14053;DHT22;7101;51.600;7.310;2023-10-13T16:28:10;21.90;99.90
14053;DHT22;7101;51.600;7.310;2023-10-13T16:30:37;21.90;99.90
14053;DHT22;7101;51.600;7.310;2023-10-13T16:33:06;21.90;99.90
14053;DHT22;7101;51.600;7.310;2023-10-13T16:35:34;21.90;99.90
14053;DHT22;7101;51.600;7.310;2023-10-13T16:38:02;21.90;99.90
14053;DHT22;7101;51.600;7.310;2023-10-13T16:40:32;21.90;99.90